CPX324 Details

Departure: March Air Reserve Base (KRIV)
Arrival: Daniel K Inouye International Airport (PHNL)
Route: SKYES3 OCN MALIT C1177 FICKY R578 FOMAS R578 DEREC MAKEN LNY JULLE5


Current Weather Information
KRIV 251058Z AUTO 00000KT 10SM CLR 08/08 A2988 RMK AO2 SLP112 T00790079
PHNL 251053Z 08008KT 10SM FEW026 FEW060 26/19 A3006 RMK AO2 SLP180 T02610194 $